Time;durP1;ratioP1;P1;durP2;ratioP2;P2;SDS_P1;SDS_P2;PMS_P1;PMS_P2;Temp;Humidity;BMP_temperature;BMP_pressure;BME280_temperature;BME280_humidity;BME280_pressure;Samples;Min_cycle;Max_cycle;Signal;HPM_P1;HPM_P2
2021/07/17 00:00:29;;;;;;;12.65;9.50;;;;;;;17.38;97.16;93071.66;1770015;79;21114;-81
2021/07/17 00:02:56;;;;;;;19.62;9.78;;;;;;;17.33;97.06;93070.22;1745720;80;21111;-80
2021/07/17 00:05:23;;;;;;;11.95;8.98;;;;;;;17.24;97.27;93068.18;1715333;82;21017;-80
2021/07/17 00:07:50;;;;;;;13.40;9.15;;;;;;;17.16;97.68;93066.13;1707039;81;21191;-81
2021/07/17 00:10:28;;;;;;;11.48;9.88;;;;;;;17.09;98.06;93062.26;1755662;81;20968;-81
2021/07/17 00:12:56;;;;;;;10.35;9.25;;;;;;;17.04;98.17;93063.59;1750038;81;22030;-81
2021/07/17 00:15:23;;;;;;;16.25;9.10;;;;;;;16.97;98.78;93055.59;1729657;81;21056;-80
2021/07/17 00:17:50;;;;;;;12.85;9.23;;;;;;;16.96;99.16;93057.58;1764217;79;21039;-81
2021/07/17 00:20:17;;;;;;;13.22;10.13;;;;;;;16.92;99.45;93062.41;1752664;80;21114;-82
2021/07/17 00:22:44;;;;;;;12.20;8.53;;;;;;;16.95;99.67;93058.77;1776304;80;21032;-81
2021/07/17 00:25:16;;;;;;;13.53;9.20;;;;;;;16.98;99.10;93053.77;1775439;79;21017;-80
2021/07/17 00:27:43;;;;;;;11.97;9.13;;;;;;;16.91;98.79;93047.75;1782127;77;20994;-81
2021/07/17 00:30:10;;;;;;;11.73;8.25;;;;;;;16.78;98.95;93049.78;1802319;79;21082;-81
2021/07/17 00:32:37;;;;;;;14.83;9.15;;;;;;;16.68;99.50;93047.52;1809780;79;21095;-81
2021/07/17 00:35:05;;;;;;;12.03;9.50;;;;;;;16.62;100.00;93050.64;1809112;79;21060;-81
2021/07/17 00:37:31;;;;;;;17.92;9.53;;;;;;;16.66;99.86;93058.95;1810857;79;20960;-82
2021/07/17 00:39:58;;;;;;;11.20;8.65;;;;;;;16.67;99.39;93059.10;1810170;79;21079;-81
2021/07/17 00:42:24;;;;;;;11.80;8.88;;;;;;;16.69;98.95;93064.14;1808832;79;21671;-81
2021/07/17 00:44:51;;;;;;;12.15;8.33;;;;;;;16.63;98.63;93054.34;1821737;77;21072;-81
2021/07/17 00:47:18;;;;;;;9.50;8.05;;;;;;;16.60;98.56;93059.33;1821758;77;21083;-81
2021/07/17 00:49:45;;;;;;;11.22;7.75;;;;;;;16.59;98.41;93057.80;1826257;77;21008;-82
2021/07/17 00:52:12;;;;;;;14.30;8.85;;;;;;;16.63;97.89;93057.08;1762591;81;21027;-82
2021/07/17 00:54:38;;;;;;;9.53;7.72;;;;;;;16.64;97.34;93050.37;1813984;77;20998;-82
2021/07/17 00:57:05;;;;;;;10.45;8.00;;;;;;;16.67;97.05;93048.73;1814933;77;22204;-81
2021/07/17 00:59:34;;;;;;;13.05;8.30;;;;;;;16.70;96.54;93053.34;1807927;77;21035;-81
2021/07/17 01:02:01;;;;;;;12.10;8.58;;;;;;;16.65;95.81;93049.16;1756060;80;20998;-82
2021/07/17 01:04:28;;;;;;;14.70;9.00;;;;;;;16.63;95.91;93054.34;1750785;82;21476;-82
2021/07/17 01:06:58;;;;;;;14.05;7.87;;;;;;;16.64;95.75;93044.13;1740915;80;21037;-82
2021/07/17 01:09:30;;;;;;;17.87;8.30;;;;;;;16.61;95.14;93051.25;1749353;79;21150;-81
2021/07/17 01:12:02;;;;;;;9.05;7.37;;;;;;;16.57;94.99;93051.97;1741583;81;21100;-81
2021/07/17 01:14:28;;;;;;;8.53;6.92;;;;;;;16.51;94.95;93050.41;1772062;80;21542;-81
2021/07/17 01:16:54;;;;;;;11.15;7.65;;;;;;;16.39;94.93;93049.03;1801073;79;21021;-81
2021/07/17 01:19:24;;;;;;;11.83;7.92;;;;;;;16.24;95.21;93052.22;1770893;80;21059;-81
2021/07/17 01:21:52;;;;;;;13.15;8.00;;;;;;;16.12;95.94;93050.87;1769148;80;21534;-81
2021/07/17 01:24:21;;;;;;;14.40;8.35;;;;;;;16.11;96.55;93060.31;1775546;79;21103;-81
2021/07/17 01:26:52;;;;;;;12.05;7.83;;;;;;;16.10;96.61;93052.69;1776222;80;21021;-81
2021/07/17 01:29:19;;;;;;;10.55;7.72;;;;;;;16.12;96.58;93057.11;1761022;80;21132;-81
2021/07/17 01:31:45;;;;;;;11.70;7.83;;;;;;;16.11;96.60;93059.70;1685583;85;21228;-81
2021/07/17 01:34:11;;;;;;;13.00;7.42;;;;;;;16.02;96.56;93066.43;1768313;80;21670;-82
2021/07/17 01:36:38;;;;;;;10.60;7.85;;;;;;;15.89;96.96;93060.19;1777449;80;21473;-82
2021/07/17 01:39:05;;;;;;;8.23;7.20;;;;;;;15.88;97.63;93064.14;1748153;80;21064;-81
2021/07/17 01:41:32;;;;;;;14.30;8.03;;;;;;;15.93;97.52;93060.23;1773562;79;21044;-81
2021/07/17 01:43:58;;;;;;;8.70;7.42;;;;;;;15.97;97.14;93065.61;1780848;80;21024;-81
2021/07/17 01:46:27;;;;;;;13.28;8.25;;;;;;;15.98;96.54;93065.19;1768909;79;21139;-80
2021/07/17 01:48:54;;;;;;;10.85;6.95;;;;;;;15.93;96.34;93056.73;1729446;81;21029;-80
2021/07/17 01:51:21;;;;;;;10.15;6.58;;;;;;;15.81;96.64;93061.60;1715598;82;21316;-81
2021/07/17 01:53:51;;;;;;;11.38;7.53;;;;;;;15.70;97.38;93062.67;1742683;81;21053;-81
2021/07/17 01:56:17;;;;;;;9.40;7.87;;;;;;;15.62;98.04;93065.44;1746807;80;21029;-81
2021/07/17 01:58:44;;;;;;;9.48;7.37;;;;;;;15.63;98.61;93056.00;1737058;82;21292;-81
2021/07/17 02:01:11;;;;;;;12.25;7.20;;;;;;;15.70;98.53;93058.56;1745397;81;21009;-82
2021/07/17 02:03:44;;;;;;;11.93;6.80;;;;;;;15.71;98.07;93055.98;1742665;80;21276;-81
2021/07/17 02:06:11;;;;;;;9.38;7.22;;;;;;;15.71;98.19;93062.84;1743346;81;21030;-81
2021/07/17 02:08:40;;;;;;;10.93;7.08;;;;;;;15.72;97.94;93064.97;1746804;81;21536;-81
2021/07/17 02:13:37;;;;;;;8.18;7.35;;;;;;;15.67;98.41;93064.15;1749207;81;21029;-81
2021/07/17 02:16:04;;;;;;;12.45;8.30;;;;;;;15.70;98.10;93060.55;1738462;80;21056;-81
2021/07/17 02:18:34;;;;;;;10.48;7.00;;;;;;;15.72;97.79;93064.97;1746997;79;21060;-81
2021/07/17 02:21:05;;;;;;;10.63;7.78;;;;;;;15.76;97.48;93069.77;1774280;80;21586;-81
2021/07/17 02:23:36;;;;;;;10.20;7.10;;;;;;;15.80;97.01;93063.58;1778981;80;21086;-80
2021/07/17 02:26:05;;;;;;;9.83;7.10;;;;;;;15.77;96.48;93065.82;1770747;80;21616;-82
2021/07/17 02:28:31;;;;;;;10.20;7.33;;;;;;;15.61;96.43;93068.59;1769166;79;21044;-81
2021/07/17 02:30:58;;;;;;;11.75;6.65;;;;;;;15.52;96.99;93070.61;1731937;81;21451;-82
2021/07/17 02:33:24;;;;;;;8.65;6.90;;;;;;;15.47;97.49;93073.28;1710214;82;21085;-81
2021/07/17 02:35:51;;;;;;;9.15;6.80;;;;;;;15.44;97.70;93074.75;1739320;81;21154;-82
2021/07/17 02:38:17;;;;;;;16.60;7.42;;;;;;;15.46;97.60;93077.23;1747459;82;21025;-81
2021/07/17 02:40:44;;;;;;;13.78;7.05;;;;;;;15.45;97.69;93072.17;1737516;81;21152;-81
2021/07/17 02:43:11;;;;;;;8.63;6.58;;;;;;;15.49;97.35;93077.72;1700053;82;21020;-81
2021/07/17 02:45:38;;;;;;;11.75;6.78;;;;;;;15.51;96.64;93074.55;1746427;80;21269;-80
2021/07/17 02:48:05;;;;;;;11.15;6.45;;;;;;;15.42;96.73;93078.52;1773967;80;22264;-81
2021/07/17 02:50:33;;;;;;;9.25;6.47;;;;;;;15.27;97.29;93069.95;1779235;79;21097;-83
2021/07/17 02:52:59;;;;;;;8.38;6.28;;;;;;;15.19;97.83;93080.91;1768724;80;21034;-81
2021/07/17 02:55:26;;;;;;;11.10;7.17;;;;;;;15.15;98.29;93085.11;1777766;80;21093;-81
2021/07/17 02:57:52;;;;;;;13.68;7.22;;;;;;;15.10;98.56;93080.16;1774959;80;21033;-81
2021/07/17 03:00:18;;;;;;;11.10;6.20;;;;;;;15.09;98.73;93079.24;1771352;79;21159;-81
2021/07/17 03:02:45;;;;;;;9.43;6.60;;;;;;;15.08;98.91;93081.19;1741356;80;21046;-81
2021/07/17 03:05:12;;;;;;;9.85;5.72;;;;;;;15.02;98.99;93088.41;1780946;80;21100;-81
2021/07/17 03:07:38;;;;;;;16.52;7.58;;;;;;;14.95;99.24;93083.11;1772356;80;21049;-82
2021/07/17 03:10:05;;;;;;;7.15;6.40;;;;;;;14.91;99.85;93080.47;1777652;80;21064;-82
2021/07/17 03:12:32;;;;;;;8.60;6.25;;;;;;;14.99;100.00;93076.34;1776517;80;21091;-82
2021/07/17 03:14:58;;;;;;;14.70;7.10;;;;;;;15.07;99.88;93078.28;1771995;79;21081;-82
2021/07/17 03:17:25;;;;;;;12.70;6.87;;;;;;;15.18;99.61;93082.11;1769611;80;21010;-81
2021/07/17 03:19:52;;;;;;;9.58;6.08;;;;;;;15.24;98.65;93074.31;1779909;80;21552;-81
2021/07/17 03:22:22;;;;;;;11.00;6.65;;;;;;;15.22;98.65;93080.05;1744143;80;21073;-81
2021/07/17 03:24:49;;;;;;;9.58;5.90;;;;;;;15.27;98.69;93083.04;1775369;80;21252;-82
2021/07/17 03:27:16;;;;;;;10.03;5.95;;;;;;;15.33;97.89;93079.16;1777248;80;21260;-82
2021/07/17 03:29:43;;;;;;;8.43;6.22;;;;;;;15.26;97.38;93081.48;1767917;79;21575;-82
2021/07/17 03:32:11;;;;;;;9.88;6.78;;;;;;;15.19;97.77;93078.93;1727238;81;21485;-82
2021/07/17 03:34:38;;;;;;;9.15;6.75;;;;;;;15.19;97.90;93080.30;1761919;79;21064;-81
2021/07/17 03:37:04;;;;;;;10.63;6.12;;;;;;;15.16;98.31;93085.30;1774778;80;21052;-82
2021/07/17 03:39:32;;;;;;;10.00;5.85;;;;;;;15.14;98.74;93084.18;1776684;79;21036;-81
2021/07/17 03:42:00;;;;;;;7.75;5.35;;;;;;;15.09;99.21;93077.27;1771138;80;21613;-82
2021/07/17 03:44:27;;;;;;;8.05;5.83;;;;;;;15.08;99.32;93080.42;1769728;80;21633;-81
2021/07/17 03:46:54;;;;;;;10.35;6.20;;;;;;;15.03;99.63;93074.27;1778759;79;21031;-80
2021/07/17 03:49:28;;;;;;;9.35;5.95;;;;;;;15.12;100.00;93080.52;1773142;79;21761;-82
2021/07/17 03:52:01;;;;;;;8.90;6.00;;;;;;;15.24;99.87;93075.68;1773625;80;21107;-82
2021/07/17 03:54:28;;;;;;;7.97;6.20;;;;;;;15.32;99.24;93070.78;1777148;80;21051;-80
2021/07/17 03:56:55;;;;;;;10.08;6.10;;;;;;;15.41;99.19;93072.27;1772410;80;21048;-80
2021/07/17 03:59:22;;;;;;;11.28;5.83;;;;;;;15.52;98.75;93063.16;1780586;80;21071;-81
2021/07/17 04:01:48;;;;;;;11.55;6.00;;;;;;;15.67;98.43;93068.26;1778098;79;21099;-81
2021/07/17 04:04:15;;;;;;;8.45;5.90;;;;;;;15.81;98.45;93067.09;1770133;79;21056;-81
2021/07/17 04:06:42;;;;;;;8.65;6.10;;;;;;;15.95;97.57;93059.81;1791197;78;21084;-81
2021/07/17 04:09:09;;;;;;;12.25;6.62;;;;;;;16.08;96.90;93066.06;1791178;78;21147;-81
2021/07/17 04:11:35;;;;;;;8.80;5.97;;;;;;;16.16;96.40;93070.11;1737538;80;21098;-81
2021/07/17 04:14:01;;;;;;;11.15;5.67;;;;;;;16.31;96.42;93064.19;1788396;79;21129;-81
2021/07/17 04:16:28;;;;;;;9.80;5.55;;;;;;;16.54;96.00;93067.19;1773866;79;21029;-81
2021/07/17 04:18:55;;;;;;;9.85;5.47;;;;;;;16.77;95.31;93068.81;1762996;79;21107;-82
2021/07/17 04:21:21;;;;;;;10.50;5.90;;;;;;;16.96;93.91;93074.64;1775037;79;21514;-81
2021/07/17 04:23:48;;;;;;;11.43;6.22;;;;;;;17.12;93.25;93067.63;1784354;79;21095;-81
2021/07/17 04:26:16;;;;;;;12.40;6.03;;;;;;;17.32;92.92;93081.06;1754653;79;22243;-81
2021/07/17 04:28:42;;;;;;;10.30;6.47;;;;;;;17.48;91.45;93078.13;1788069;79;21055;-81
2021/07/17 04:31:08;;;;;;;8.85;6.65;;;;;;;17.69;91.35;93077.97;1793070;78;21052;-81
2021/07/17 04:33:35;;;;;;;8.93;6.30;;;;;;;17.88;90.24;93073.98;1775517;79;21108;-81
2021/07/17 04:36:01;;;;;;;8.38;6.83;;;;;;;18.00;89.64;93077.26;1747661;80;21037;-82
2021/07/17 04:38:28;;;;;;;18.35;11.70;;;;;;;18.10;89.11;93069.83;1767493;79;21184;-81
2021/07/17 04:40:54;;;;;;;33.80;18.17;;;;;;;18.29;89.18;93070.68;1760451;78;21038;-81
2021/07/17 04:43:22;;;;;;;19.00;12.30;;;;;;;18.57;88.69;93068.77;1742197;80;21044;-82
2021/07/17 04:45:48;;;;;;;16.70;8.93;;;;;;;18.84;87.71;93066.13;1709664;80;21474;-81
2021/07/17 04:48:15;;;;;;;19.98;12.40;;;;;;;19.09;85.62;93063.70;1737485;81;21071;-81
2021/07/17 04:50:42;;;;;;;30.77;15.43;;;;;;;19.27;85.14;93068.47;1746938;80;21104;-82
2021/07/17 04:53:09;;;;;;;19.87;12.30;;;;;;;19.42;84.77;93072.76;1806437;77;21550;-82
2021/07/17 04:55:36;;;;;;;12.60;10.13;;;;;;;19.50;83.90;93073.22;1779330;77;21471;-81
2021/07/17 04:58:03;;;;;;;11.53;9.23;;;;;;;19.52;83.27;93077.64;1787966;77;21049;-81
2021/07/17 05:00:30;;;;;;;13.43;10.30;;;;;;;19.46;83.43;93067.85;1816509;77;21182;-82
2021/07/17 05:02:57;;;;;;;11.80;9.30;;;;;;;19.39;82.86;93069.53;1814434;77;22247;-82
2021/07/17 05:05:24;;;;;;;14.13;10.25;;;;;;;19.33;82.58;93073.53;1802332;77;21051;-82
2021/07/17 05:07:52;;;;;;;12.55;9.93;;;;;;;19.29;83.41;93070.14;1770779;79;21630;-83
2021/07/17 05:10:23;;;;;;;10.48;9.05;;;;;;;19.28;84.10;93065.86;1736274;77;21474;-83
2021/07/17 05:12:52;;;;;;;12.15;9.38;;;;;;;19.33;84.76;93067.23;1814999;77;21089;-82
2021/07/17 05:15:19;;;;;;;10.45;8.78;;;;;;;19.38;85.31;93066.63;1821681;77;21113;-82
2021/07/17 05:17:50;;;;;;;14.60;9.05;;;;;;;19.51;85.34;93066.47;1810013;77;21122;-82
2021/07/17 05:20:19;;;;;;;12.55;9.05;;;;;;;19.71;84.78;93068.17;1788617;79;21985;-82
2021/07/17 05:22:45;;;;;;;11.85;9.30;;;;;;;19.87;83.72;93069.21;1807335;77;21083;-83
2021/07/17 05:25:13;;;;;;;11.18;8.50;;;;;;;20.05;83.00;93066.27;1788051;77;21107;-83
2021/07/17 05:27:40;;;;;;;13.00;8.23;;;;;;;20.30;81.62;93066.48;1743031;77;21151;-83
2021/07/17 05:30:10;;;;;;;9.18;7.42;;;;;;;20.64;80.63;93061.77;1807757;77;20989;-82
2021/07/17 05:32:37;;;;;;;7.72;6.50;;;;;;;21.07;78.86;93061.83;1813669;77;21102;-82
2021/07/17 05:35:05;;;;;;;8.70;6.70;;;;;;;21.56;76.94;93063.33;1761504;78;21128;-83
2021/07/17 05:37:32;;;;;;;8.23;7.42;;;;;;;22.15;74.58;93056.47;1791370;77;21645;-86
2021/07/17 05:39:58;;;;;;;9.18;7.55;;;;;;;22.68;72.96;93057.53;1791257;77;21095;-87
2021/07/17 05:42:25;;;;;;;8.15;6.85;;;;;;;23.02;71.47;93056.05;1758693;79;21041;-85
2021/07/17 05:44:54;;;;;;;7.58;6.47;;;;;;;23.15;70.43;93054.31;1781783;77;21115;-84
2021/07/17 05:47:29;;;;;;;7.62;6.90;;;;;;;23.09;70.13;93055.61;1716671;80;21661;-85
2021/07/17 05:49:57;;;;;;;9.00;7.55;;;;;;;22.96;69.91;93051.80;1692660;82;21034;-83
2021/07/17 05:52:26;;;;;;;9.95;8.03;;;;;;;22.85;69.97;93059.17;1699753;80;21092;-86
2021/07/17 05:54:53;;;;;;;12.43;7.65;;;;;;;22.77;71.08;93051.27;1780263;78;21432;-82
2021/07/17 05:57:21;;;;;;;10.32;9.13;;;;;;;22.70;70.76;93048.13;1768400;79;21031;-85
2021/07/17 05:59:48;;;;;;;12.45;7.55;;;;;;;22.66;70.51;93053.88;1773841;78;21100;-84
2021/07/17 06:02:17;;;;;;;10.05;8.10;;;;;;;22.62;70.70;93045.00;1750442;80;21036;-84
2021/07/17 06:04:45;;;;;;;11.15;8.95;;;;;;;22.67;71.71;93048.46;1738368;79;21095;-84
2021/07/17 06:07:12;;;;;;;11.03;7.83;;;;;;;22.84;70.79;93051.48;1770768;76;21077;-84
2021/07/17 06:09:41;;;;;;;10.45;8.90;;;;;;;23.11;70.10;93055.91;1820116;76;21076;-85
2021/07/17 06:12:12;;;;;;;10.58;8.50;;;;;;;23.49;69.01;93051.32;1783104;78;21659;-86
2021/07/17 06:14:41;;;;;;;11.48;9.18;;;;;;;23.84;67.96;93045.66;1799548;76;21015;-85
2021/07/17 06:17:11;;;;;;;11.05;8.03;;;;;;;24.10;66.62;93041.49;1823494;76;21096;-82
2021/07/17 06:19:41;;;;;;;9.70;7.58;;;;;;;24.21;65.58;93046.39;1812134;77;21057;-85
2021/07/17 06:22:09;;;;;;;15.68;8.63;;;;;;;24.12;65.34;93050.11;1806017;77;20963;-84
2021/07/17 06:24:38;;;;;;;9.95;8.15;;;;;;;24.04;65.70;93051.05;1793634;77;21024;-85
2021/07/17 06:27:07;;;;;;;12.28;7.80;;;;;;;24.09;66.41;93052.47;1757879;78;21562;-86
2021/07/17 06:29:35;;;;;;;11.30;8.60;;;;;;;24.24;66.31;93046.17;1788079;77;21079;-85
2021/07/17 06:32:08;;;;;;;9.78;8.28;;;;;;;24.29;65.68;93041.91;1775370;79;21068;-85
2021/07/17 06:34:34;;;;;;;9.55;7.95;;;;;;;24.27;66.02;93045.06;1787767;77;21023;-84
2021/07/17 06:37:01;;;;;;;9.70;7.62;;;;;;;24.22;65.66;93040.96;1813564;77;21206;-87
2021/07/17 06:39:30;;;;;;;15.05;8.20;;;;;;;24.14;65.13;93035.72;1785983;78;21512;-83
2021/07/17 06:41:58;;;;;;;10.70;7.65;;;;;;;24.02;65.00;93029.31;1805835;77;21115;-84
2021/07/17 06:44:25;;;;;;;10.08;8.08;;;;;;;23.93;65.87;93034.41;1805972;77;21037;-83
2021/07/17 06:46:52;;;;;;;11.33;7.72;;;;;;;23.96;66.32;93031.29;1810762;77;21041;-82
2021/07/17 06:49:19;;;;;;;11.45;7.42;;;;;;;23.97;65.42;93027.25;1790430;77;21049;-84
2021/07/17 06:51:52;;;;;;;13.88;8.65;;;;;;;23.91;65.42;93031.34;1751117;77;21033;-83
2021/07/17 06:54:19;;;;;;;12.55;8.33;;;;;;;23.89;64.70;93026.93;1819195;77;21756;-84
2021/07/17 06:56:49;;;;;;;15.25;10.48;;;;;;;23.84;64.08;93024.08;1793601;77;21065;-82
2021/07/17 06:59:18;;;;;;;13.62;8.58;;;;;;;23.83;63.72;93025.34;1766864;79;21076;-81
2021/07/17 07:01:46;;;;;;;9.00;6.83;;;;;;;23.85;63.77;93030.55;1791580;77;20998;-80
2021/07/17 07:04:14;;;;;;;12.68;7.25;;;;;;;23.87;63.85;93018.31;1807033;76;21733;-82
2021/07/17 07:06:43;;;;;;;9.55;6.37;;;;;;;23.87;64.17;93021.72;1786051;77;21881;-82
2021/07/17 07:09:13;;;;;;;9.48;6.30;;;;;;;23.89;63.31;93024.16;1753359;79;21153;-84
2021/07/17 07:11:43;;;;;;;12.15;5.80;;;;;;;23.94;63.55;93027.59;1753314;80;21087;-82
2021/07/17 07:14:10;;;;;;;8.00;5.85;;;;;;;24.02;63.51;93023.75;1729768;78;21266;-82
2021/07/17 07:16:38;;;;;;;9.60;5.42;;;;;;;24.05;61.28;93024.16;1794413;77;21107;-83
2021/07/17 07:19:13;;;;;;;7.70;5.30;;;;;;;24.08;60.93;93023.81;1764325;77;21110;-83
2021/07/17 07:21:40;;;;;;;19.52;5.53;;;;;;;24.15;60.12;93024.14;1812297;77;21056;-81
2021/07/17 07:24:15;;;;;;;10.05;5.40;;;;;;;24.21;60.85;93020.00;1810993;77;21013;-82
2021/07/17 07:26:45;;;;;;;9.08;5.83;;;;;;;24.25;60.35;93020.53;1712041;79;21074;-84
2021/07/17 07:29:12;;;;;;;10.00;5.67;;;;;;;24.23;60.09;93016.12;1745518;79;21308;-85
2021/07/17 07:31:40;;;;;;;5.92;4.80;;;;;;;24.26;60.72;93010.97;1760062;79;21134;-83
2021/07/17 07:34:07;;;;;;;6.90;4.70;;;;;;;24.42;56.25;93010.98;1738269;79;21113;-84
2021/07/17 07:36:40;;;;;;;5.28;4.00;;;;;;;24.67;57.27;93014.33;1769977;79;21459;-88
2021/07/17 07:39:12;;;;;;;8.83;3.62;;;;;;;24.84;53.05;93013.66;1739877;79;21086;-86
2021/07/17 07:41:41;;;;;;;4.35;3.90;;;;;;;25.03;50.78;93008.45;1742351;80;21024;-84
2021/07/17 07:44:20;;;;;;;4.08;3.30;;;;;;;25.26;46.01;93013.50;1765459;79;21072;-81
2021/07/17 07:46:46;;;;;;;4.65;3.00;;;;;;;25.47;47.50;93007.14;1681801;82;21016;-86
2021/07/17 07:49:13;;;;;;;7.35;3.40;;;;;;;25.55;45.22;93012.35;1683623;80;21060;-86
2021/07/17 07:51:42;;;;;;;8.03;3.10;;;;;;;25.59;44.66;93016.41;1755096;79;21083;-87
2021/07/17 07:54:21;;;;;;;6.97;3.22;;;;;;;25.65;44.45;93015.80;1753206;79;21584;-79
2021/07/17 07:56:53;;;;;;;5.78;3.20;;;;;;;25.75;42.02;93021.13;1718207;80;21208;-84
2021/07/17 07:59:39;;;;;;;11.80;3.62;;;;;;;25.78;44.54;93016.73;1778170;78;21006;-81
2021/07/17 08:13:29;;;;;;;5.37;3.02;;;;;;;25.94;43.36;93021.45;1799692;77;21562;-81
2021/07/17 08:15:59;;;;;;;14.75;3.95;;;;;;;25.89;41.51;93020.94;1808616;77;21190;-81
2021/07/17 08:21:06;;;;;;;4.95;2.90;;;;;;;25.90;42.12;93024.48;1798231;77;21060;-80
2021/07/17 08:23:32;;;;;;;5.12;3.20;;;;;;;25.93;43.54;93028.29;1810098;77;22252;-77
2021/07/17 08:26:22;;;;;;;14.10;4.53;;;;;;;25.98;42.12;93026.14;1812086;77;21056;-82
2021/07/17 08:28:48;;;;;;;3.80;2.92;;;;;;;26.01;42.97;93024.50;1705742;82;21116;-80
2021/07/17 08:31:27;;;;;;;5.90;3.40;;;;;;;26.07;43.13;93029.45;1800686;77;21113;-79
2021/07/17 08:33:53;;;;;;;5.97;3.05;;;;;;;26.09;42.36;93023.36;1815596;76;21068;-78
2021/07/17 08:36:27;;;;;;;7.17;3.20;;;;;;;26.07;42.32;93029.45;1801388;77;21065;-79
2021/07/17 08:38:55;;;;;;;7.15;3.70;;;;;;;26.10;40.67;93024.88;1795098;77;21102;-80
2021/07/17 08:41:26;;;;;;;12.95;4.05;;;;;;;26.10;41.31;93020.09;1752023;79;21122;-79
2021/07/17 08:43:55;;;;;;;4.92;3.15;;;;;;;26.11;42.10;93031.36;1739215;78;21579;-79
2021/07/17 08:49:17;;;;;;;5.85;3.70;;;;;;;26.11;41.69;93019.45;1734838;80;21108;-80
2021/07/17 08:51:46;;;;;;;5.72;3.05;;;;;;;26.03;42.38;93025.41;1757316;79;21023;-77
2021/07/17 08:54:15;;;;;;;6.78;3.60;;;;;;;25.93;42.85;93020.69;1790145;76;21094;-81
2021/07/17 08:56:42;;;;;;;5.90;3.22;;;;;;;25.93;43.29;93026.27;1772633;77;21283;-77
2021/07/17 09:16:10;;;;;;;8.43;3.25;;;;;;;25.91;43.72;93014.24;1745772;77;22200;-79
2021/07/17 09:18:50;;;;;;;5.08;3.27;;;;;;;25.99;43.15;93015.11;1802845;77;21146;-77
2021/07/17 09:21:28;;;;;;;4.83;3.17;;;;;;;26.09;41.79;93009.44;1760128;79;21088;-77
2021/07/17 09:24:19;;;;;;;;;;;;;;;26.17;40.91;93010.45;1748467;80;21502;-82
2021/07/17 09:27:06;;;;;;;8.20;3.30;;;;;;;26.19;42.30;93002.36;1720328;81;20254;-80
2021/07/17 09:29:36;;;;;;;8.43;3.27;;;;;;;26.16;42.51;93010.33;1719007;82;21053;-79
2021/07/17 09:32:05;;;;;;;4.25;3.40;;;;;;;26.12;43.50;93007.80;1809494;77;22252;-77
2021/07/17 09:37:10;;;;;;;4.75;3.08;;;;;;;26.24;44.41;93007.80;1763404;79;21287;-79
2021/07/17 09:42:20;;;;;;;9.88;3.47;;;;;;;26.44;41.71;93001.20;1797488;76;21098;-80
2021/07/17 09:44:55;;;;;;;12.68;3.80;;;;;;;26.47;41.42;93005.80;1770210;79;21499;-82
2021/07/17 10:04:15;;;;;;;3.55;3.25;;;;;;;26.20;46.61;93003.11;1770144;79;21013;-82
2021/07/17 10:06:46;;;;;;;9.00;3.42;;;;;;;26.32;44.12;92998.42;1729055;80;21547;-79
2021/07/17 10:09:22;;;;;;;9.10;3.92;;;;;;;26.45;44.69;92997.17;1712644;81;21568;-80
2021/07/17 10:12:07;;;;;;;8.35;3.65;;;;;;;26.53;44.45;92992.62;1735927;80;21399;-79
2021/07/17 10:14:38;;;;;;;10.20;4.10;;;;;;;26.61;44.11;92994.38;1775357;79;21123;-80
2021/07/17 10:17:17;;;;;;;8.63;3.85;;;;;;;26.70;42.13;92999.55;1781575;79;21064;-80
2021/07/17 10:19:44;;;;;;;7.92;4.20;;;;;;;26.70;41.49;92999.55;1730258;80;21689;-80
2021/07/17 10:22:13;;;;;;;11.40;8.60;;;;;;;26.65;42.39;92992.72;1734573;79;21984;-79
2021/07/17 10:24:40;;;;;;;6.92;4.67;;;;;;;26.65;42.96;92991.33;1754984;80;21044;-80
2021/07/17 10:27:07;;;;;;;5.78;3.83;;;;;;;26.65;42.78;92985.75;1776579;79;21152;-80
2021/07/17 10:29:33;;;;;;;4.42;3.80;;;;;;;26.60;42.17;92990.72;1797619;77;21051;-80
2021/07/17 10:32:03;;;;;;;6.35;4.15;;;;;;;26.56;41.67;92991.61;1749396;78;21323;-81
2021/07/17 10:34:34;;;;;;;15.05;3.95;;;;;;;26.51;42.37;92991.72;1789536;77;20996;-80
2021/07/17 10:37:20;;;;;;;8.00;4.05;;;;;;;26.51;44.70;92985.39;1819701;77;21007;-80
2021/07/17 10:42:25;;;;;;;5.03;3.70;;;;;;;26.60;44.99;92983.11;1753926;80;21049;-80
2021/07/17 10:44:56;;;;;;;7.17;3.80;;;;;;;26.67;44.65;92984.62;1786615;77;21088;-79
2021/07/17 10:47:23;;;;;;;5.42;3.80;;;;;;;26.73;44.08;92978.38;1795702;77;21067;-78
2021/07/17 10:49:55;;;;;;;8.43;4.35;;;;;;;26.79;45.09;92974.95;1808052;77;21099;-79
2021/07/17 10:52:43;;;;;;;6.87;3.70;;;;;;;26.89;43.17;92982.39;1803248;77;21227;-80
2021/07/17 10:55:28;;;;;;;6.95;3.58;;;;;;;26.93;41.92;92977.34;1785980;77;21072;-80
2021/07/17 10:58:00;;;;;;;12.63;4.95;;;;;;;26.90;42.27;92974.81;1811884;77;21141;-78
2021/07/17 11:00:52;;;;;;;11.20;3.83;;;;;;;26.86;41.91;92979.26;1827502;77;21057;-81
2021/07/17 11:03:41;;;;;;;11.20;4.40;;;;;;;26.75;43.10;92970.28;1787296;77;21060;-80
2021/07/17 11:06:38;;;;;;;4.35;3.85;;;;;;;26.73;44.69;92968.63;1762515;78;21616;-81
2021/07/17 11:09:09;;;;;;;8.43;4.50;;;;;;;26.76;42.61;92966.21;1817938;77;21011;-81
2021/07/17 11:11:44;;;;;;;9.93;4.25;;;;;;;26.83;43.26;92966.33;1818675;77;26504;-80
2021/07/17 11:14:22;;;;;;;6.30;4.50;;;;;;;26.80;42.99;92970.13;1817901;77;21021;-80
2021/07/17 11:16:55;;;;;;;6.87;5.17;;;;;;;26.82;44.33;92963.42;1818728;77;20984;-79
2021/07/17 11:19:28;;;;;;;9.53;4.58;;;;;;;26.90;44.66;92965.80;1816355;77;21118;-81
2021/07/17 11:21:56;;;;;;;8.63;3.98;;;;;;;26.94;44.42;92964.14;1822403;77;21071;-82
2021/07/17 11:24:26;;;;;;;10.15;4.97;;;;;;;26.89;44.39;92976.81;1815584;77;21491;-80
2021/07/17 11:29:48;;;;;;;8.80;5.60;;;;;;;26.74;43.99;92968.77;1806161;77;21021;-79
2021/07/17 11:32:19;;;;;;;5.20;4.70;;;;;;;26.59;44.73;92971.05;1781240;77;21135;-80
2021/07/17 11:34:54;;;;;;;6.47;4.28;;;;;;;26.53;44.27;92968.28;1701563;79;21058;-80
2021/07/17 11:37:23;;;;;;;10.05;4.85;;;;;;;26.53;44.85;92974.50;1718034;79;21088;-78
2021/07/17 11:39:54;;;;;;;5.33;4.83;;;;;;;26.57;45.32;92969.42;1763696;79;21124;-77
2021/07/17 11:42:24;;;;;;;6.95;4.28;;;;;;;26.62;45.15;92958.89;1732074;81;21073;-78
2021/07/17 11:44:56;;;;;;;7.42;4.72;;;;;;;26.67;46.82;92962.92;1772582;78;21640;-79
2021/07/17 11:47:31;;;;;;;10.30;5.10;;;;;;;26.75;45.91;92966.09;1679900;80;21004;-77
2021/07/17 11:49:59;;;;;;;10.20;5.58;;;;;;;26.74;46.81;92967.38;1702770;81;21105;-78
2021/07/17 11:52:31;;;;;;;10.05;5.47;;;;;;;26.64;45.75;92971.70;1721700;80;21100;-79
2021/07/17 11:55:04;;;;;;;13.55;5.42;;;;;;;26.46;44.67;92972.23;1731561;80;21042;-79
2021/07/17 11:57:32;;;;;;;11.45;5.42;;;;;;;26.26;45.69;92971.84;1716469;79;21818;-77
2021/07/17 12:00:14;;;;;;;12.35;5.00;;;;;;;26.13;45.56;92968.91;1766372;79;21060;-78
2021/07/17 12:02:42;;;;;;;9.38;4.70;;;;;;;26.08;44.98;92959.92;1762903;79;21069;-77
2021/07/17 12:05:19;;;;;;;8.33;5.05;;;;;;;26.13;48.06;92965.37;1774712;79;21044;-82
2021/07/17 12:07:48;;;;;;;8.50;4.40;;;;;;;26.23;45.88;92968.03;1778721;78;21379;-78
2021/07/17 12:10:22;;;;;;;5.78;4.40;;;;;;;26.31;45.78;92973.22;1770967;79;21096;-78
2021/07/17 12:12:51;;;;;;;10.40;4.80;;;;;;;26.34;43.33;92965.23;1777944;79;21045;-80
2021/07/17 12:15:33;;;;;;;12.43;4.55;;;;;;;26.32;43.31;92970.55;1784610;78;21375;-79
2021/07/17 12:18:13;;;;;;;7.97;4.50;;;;;;;26.33;44.66;92961.58;1783469;78;21036;-79
2021/07/17 12:20:43;;;;;;;6.83;4.37;;;;;;;26.37;43.70;92960.05;1779691;78;22022;-79
2021/07/17 12:23:24;;;;;;;12.63;4.40;;;;;;;26.40;44.65;92953.46;1740352;78;21074;-78
2021/07/17 12:25:56;;;;;;;13.55;4.30;;;;;;;26.47;45.80;92951.44;1748072;79;20971;-80
2021/07/17 12:28:37;;;;;;;8.58;4.55;;;;;;;26.58;43.31;92964.72;1778023;78;21079;-80
2021/07/17 12:31:10;;;;;;;5.35;4.30;;;;;;;26.64;42.48;92956.36;1776039;79;21041;-80
2021/07/17 12:33:39;;;;;;;8.83;4.83;;;;;;;26.65;42.24;92952.30;1781262;78;21056;-78
2021/07/17 12:36:14;;;;;;;11.88;5.10;;;;;;;26.63;41.11;92953.45;1779336;79;21138;-79
2021/07/17 12:38:52;;;;;;;5.42;4.28;;;;;;;26.60;41.87;92952.44;1777270;78;21147;-82
2021/07/17 12:41:28;;;;;;;6.85;4.67;;;;;;;26.54;41.64;92954.47;1767669;78;21037;-82
2021/07/17 12:44:00;;;;;;;6.58;4.15;;;;;;;26.45;41.87;92960.93;1777440;78;21518;-82